Time;durP1;ratioP1;P1;durP2;ratioP2;P2;SDS_P1;SDS_P2;PMS_P1;PMS_P2;Temp;Humidity;BMP_temperature;BMP_pressure;BME280_temperature;BME280_humidity;BME280_pressure;Samples;Min_cycle;Max_cycle;Signal;HPM_P1;HPM_P2
2023/01/27 00:00:13;;;;;;;16.42;8.63;;;5.40;99.90;;;;;;5089892;28;20047;-89
2023/01/27 00:02:40;;;;;;;18.42;8.27;;;5.40;99.90;;;;;;5070196;28;20508;-90
2023/01/27 00:05:06;;;;;;;20.95;9.63;;;5.40;99.90;;;;;;5073467;28;20032;-90
2023/01/27 00:07:32;;;;;;;20.48;8.75;;;5.40;99.90;;;;;;5070409;28;20043;-90
2023/01/27 00:09:58;;;;;;;18.08;9.60;;;5.40;99.90;;;;;;5069591;28;20573;-90
2023/01/27 00:15:10;;;;;;;19.02;9.85;;;5.40;99.90;;;;;;5091112;28;20048;-89
2023/01/27 00:17:36;;;;;;;20.90;10.88;;;5.40;99.90;;;;;;5076649;28;20044;-90
2023/01/27 00:20:03;;;;;;;18.70;11.20;;;5.40;99.90;;;;;;5072167;28;20479;-90
2023/01/27 00:25:14;;;;;;;21.00;11.27;;;5.40;99.90;;;;;;5087300;28;20036;-89
2023/01/27 00:27:39;;;;;;;20.38;11.38;;;5.30;99.90;;;;;;5076377;28;20046;-90
2023/01/27 00:30:06;;;;;;;17.95;10.85;;;5.30;99.90;;;;;;5076560;28;20118;-90
2023/01/27 00:35:16;;;;;;;23.10;13.43;;;5.40;99.90;;;;;;5069782;28;20036;-90
2023/01/27 00:37:42;;;;;;;21.67;11.55;;;5.40;99.90;;;;;;5057182;28;20127;-90
2023/01/27 00:40:13;;;;;;;23.30;11.65;;;5.40;99.90;;;;;;5072831;28;20044;-90
2023/01/27 00:42:39;;;;;;;19.67;10.82;;;5.40;99.90;;;;;;5071756;28;20055;-90
2023/01/27 00:47:51;;;;;;;16.77;10.85;;;5.40;99.90;;;;;;5094315;28;20037;-89
2023/01/27 00:50:17;;;;;;;18.45;11.55;;;5.30;99.90;;;;;;5077952;28;20055;-89
2023/01/27 00:52:43;;;;;;;19.48;10.60;;;5.30;99.90;;;;;;5092799;28;20119;-90
2023/01/27 00:55:09;;;;;;;18.67;10.73;;;5.30;99.90;;;;;;5076472;28;20093;-90
2023/01/27 00:57:36;;;;;;;17.70;11.10;;;5.30;99.90;;;;;;5073346;28;20048;-90
2023/01/27 01:00:03;;;;;;;19.95;11.00;;;5.30;99.90;;;;;;5075958;28;20040;-90
2023/01/27 01:02:29;;;;;;;16.85;9.82;;;5.30;99.90;;;;;;5075782;28;20044;-90
2023/01/27 01:04:55;;;;;;;17.17;9.75;;;5.30;99.90;;;;;;5073550;28;20028;-90
2023/01/27 01:07:20;;;;;;;17.58;10.18;;;5.30;99.90;;;;;;5075427;28;20040;-90
2023/01/27 01:09:46;;;;;;;15.38;9.05;;;5.30;99.90;;;;;;5073737;28;20380;-89
2023/01/27 01:12:11;;;;;;;17.00;9.82;;;5.30;99.90;;;;;;5071389;28;20478;-90
2023/01/27 01:14:37;;;;;;;15.30;8.57;;;5.30;99.90;;;;;;5064515;28;20048;-89
2023/01/27 01:17:03;;;;;;;16.92;9.40;;;5.40;99.90;;;;;;5074130;28;20063;-90
2023/01/27 01:19:31;;;;;;;16.90;9.68;;;5.40;99.90;;;;;;5092641;28;20036;-89
2023/01/27 01:21:57;;;;;;;13.82;8.27;;;5.30;99.90;;;;;;5067791;28;20047;-89
2023/01/27 01:24:23;;;;;;;15.65;8.27;;;5.40;99.90;;;;;;5074884;28;20036;-90
2023/01/27 01:26:48;;;;;;;17.27;7.82;;;5.40;99.90;;;;;;5073911;28;20476;-90
2023/01/27 01:29:14;;;;;;;15.32;8.48;;;5.40;99.90;;;;;;5072983;28;20072;-89
2023/01/27 01:31:39;;;;;;;16.23;7.50;;;5.40;99.90;;;;;;5092418;28;20669;-90
2023/01/27 01:34:05;;;;;;;14.55;8.15;;;5.40;99.90;;;;;;5074374;28;20085;-89
2023/01/27 01:36:31;;;;;;;14.40;7.28;;;5.40;99.90;;;;;;5075528;28;20161;-90
2023/01/27 01:38:57;;;;;;;12.10;6.93;;;5.40;99.90;;;;;;5089146;28;20051;-89
2023/01/27 01:41:23;;;;;;;13.65;6.45;;;5.40;99.90;;;;;;5074612;28;20032;-89
2023/01/27 01:43:50;;;;;;;12.38;6.28;;;5.40;99.90;;;;;;5091833;28;20046;-89
2023/01/27 01:46:17;;;;;;;10.25;5.60;;;5.40;99.90;;;;;;5075839;28;20494;-89
2023/01/27 01:48:53;;;;;;;11.30;6.45;;;5.40;99.90;;;;;;5075110;28;20460;-90
2023/01/27 01:51:30;;;;;;;10.95;5.45;;;5.40;99.90;;;;;;5078053;28;20036;-89
2023/01/27 01:54:05;;;;;;;10.35;5.30;;;5.40;99.90;;;;;;5071901;28;20040;-90
2023/01/27 01:56:36;;;;;;;8.85;4.75;;;5.40;99.90;;;;;;5059597;28;20079;-90
2023/01/27 01:59:07;;;;;;;10.48;4.88;;;5.40;99.90;;;;;;5089517;28;20075;-90
2023/01/27 02:01:32;;;;;;;10.35;4.80;;;5.40;99.90;;;;;;5091281;28;20086;-89
2023/01/27 02:04:03;;;;;;;8.70;4.07;;;5.40;99.90;;;;;;5068973;28;20031;-89
2023/01/27 02:06:34;;;;;;;10.00;4.88;;;5.40;99.90;;;;;;5075225;28;20439;-90
2023/01/27 02:08:59;;;;;;;10.40;4.25;;;5.40;99.90;;;;;;5072997;28;20043;-90
2023/01/27 02:11:27;;;;;;;11.20;4.47;;;5.40;99.90;;;;;;5085744;28;20048;-89
2023/01/27 02:13:52;;;;;;;10.52;4.50;;;5.40;99.90;;;;;;5074707;28;20067;-90
2023/01/27 02:16:18;;;;;;;11.55;4.07;;;5.40;99.90;;;;;;5087257;28;20083;-90
2023/01/27 02:18:44;;;;;;;8.63;3.85;;;5.40;99.90;;;;;;5073481;28;20051;-89
2023/01/27 02:21:09;;;;;;;9.35;3.75;;;5.40;99.90;;;;;;5090671;28;20040;-90
2023/01/27 02:23:45;;;;;;;8.35;3.50;;;5.40;99.90;;;;;;5073240;28;20127;-89
2023/01/27 02:26:28;;;;;;;9.38;3.72;;;5.40;99.90;;;;;;5091314;28;20051;-90
2023/01/27 02:28:57;;;;;;;8.75;3.55;;;5.40;99.90;;;;;;5073478;28;20039;-89
2023/01/27 02:31:23;;;;;;;8.85;3.85;;;5.40;99.90;;;;;;5073700;28;20485;-90
2023/01/27 02:33:50;;;;;;;9.77;3.83;;;5.40;99.90;;;;;;5091042;28;20047;-90
2023/01/27 02:36:17;;;;;;;8.60;3.88;;;5.50;99.90;;;;;;5083791;28;20390;-89
2023/01/27 02:38:51;;;;;;;8.27;3.90;;;5.40;99.90;;;;;;5090715;28;20112;-90
2023/01/27 02:41:22;;;;;;;7.78;3.60;;;5.40;99.90;;;;;;5073794;28;20036;-89
2023/01/27 02:43:49;;;;;;;8.68;3.88;;;5.50;99.90;;;;;;5085436;28;20036;-90
2023/01/27 02:46:15;;;;;;;8.15;3.70;;;5.40;99.90;;;;;;5090726;28;20040;-89
2023/01/27 02:48:41;;;;;;;9.10;3.75;;;5.40;99.90;;;;;;5073448;28;20035;-90
2023/01/27 02:51:06;;;;;;;8.30;3.53;;;5.40;99.90;;;;;;5071127;28;20044;-90
2023/01/27 02:53:32;;;;;;;9.25;3.08;;;5.50;99.90;;;;;;5091197;28;20078;-90
2023/01/27 02:55:57;;;;;;;8.77;3.20;;;5.50;99.90;;;;;;5090536;28;20515;-90
2023/01/27 02:58:23;;;;;;;7.53;3.17;;;5.40;99.90;;;;;;5089274;28;20103;-90
2023/01/27 03:00:48;;;;;;;8.18;2.72;;;5.50;99.90;;;;;;5090347;28;20044;-89
2023/01/27 03:03:14;;;;;;;7.63;3.28;;;5.50;99.90;;;;;;5071810;28;20123;-90
2023/01/27 03:05:40;;;;;;;7.47;3.13;;;5.50;99.90;;;;;;5090892;28;20505;-90
2023/01/27 03:08:06;;;;;;;7.10;3.25;;;5.40;99.90;;;;;;5072955;28;20555;-90
2023/01/27 03:10:32;;;;;;;7.57;3.38;;;5.50;99.90;;;;;;5089158;28;20103;-90
2023/01/27 03:12:57;;;;;;;7.07;3.03;;;5.50;99.90;;;;;;5073405;28;20039;-90
2023/01/27 03:18:12;;;;;;;9.77;3.67;;;5.40;99.90;;;;;;5090560;28;20052;-90
2023/01/27 03:20:39;;;;;;;11.15;3.10;;;5.50;99.90;;;;;;5060300;28;20106;-90
2023/01/27 03:23:05;;;;;;;6.32;2.45;;;5.50;99.90;;;;;;5053659;28;20028;-90
2023/01/27 03:25:31;;;;;;;8.68;2.90;;;5.50;99.90;;;;;;5054211;28;20048;-90
2023/01/27 03:27:58;;;;;;;7.47;2.72;;;5.50;99.90;;;;;;5088997;28;20036;-89
2023/01/27 03:30:24;;;;;;;8.15;2.58;;;5.50;99.90;;;;;;5073706;28;20101;-90
2023/01/27 03:32:50;;;;;;;7.18;2.63;;;5.50;99.90;;;;;;5089314;28;20036;-89
2023/01/27 03:35:16;;;;;;;7.70;2.50;;;5.50;99.90;;;;;;5073721;28;20485;-90
2023/01/27 03:48:39;;;;;;;5.10;2.25;;;5.40;99.90;;;;;;5074078;28;20489;-90
2023/01/27 03:51:08;;;;;;;8.35;2.25;;;5.40;99.90;;;;;;5063864;28;20453;-90
2023/01/27 03:53:37;;;;;;;5.15;2.03;;;5.50;99.90;;;;;;5077449;28;20107;-89
2023/01/27 03:56:04;;;;;;;6.32;2.25;;;5.40;99.90;;;;;;5077478;28;20382;-90
2023/01/27 03:58:33;;;;;;;6.43;1.95;;;5.40;99.90;;;;;;5073080;28;20047;-90
2023/01/27 04:01:02;;;;;;;5.22;1.92;;;5.50;99.90;;;;;;5076959;28;20044;-90
2023/01/27 04:09:19;;;;;;;6.68;2.17;;;5.40;99.90;;;;;;5089711;28;20436;-90
2023/01/27 04:11:53;;;;;;;5.53;2.10;;;5.40;99.90;;;;;;5094456;28;20047;-90
2023/01/27 04:14:30;;;;;;;5.15;1.92;;;5.40;99.90;;;;;;5093627;28;20496;-90
2023/01/27 04:17:04;;;;;;;5.00;2.08;;;5.40;99.90;;;;;;5105054;28;20044;-90
2023/01/27 04:19:30;;;;;;;4.35;1.85;;;5.40;99.90;;;;;;5059666;28;20044;-89
2023/01/27 04:21:57;;;;;;;7.15;2.45;;;5.40;99.90;;;;;;5072220;28;20040;-90
2023/01/27 04:24:22;;;;;;;5.22;2.00;;;5.40;99.90;;;;;;5093669;28;20040;-89
2023/01/27 04:26:54;;;;;;;4.50;1.98;;;5.40;99.90;;;;;;5073994;28;20051;-89
2023/01/27 04:29:22;;;;;;;4.88;1.90;;;5.40;99.90;;;;;;5076541;28;20085;-89
2023/01/27 04:31:48;;;;;;;4.72;1.90;;;5.40;99.90;;;;;;5073532;28;20036;-89
2023/01/27 04:34:14;;;;;;;5.68;2.15;;;5.40;99.90;;;;;;5088290;28;20075;-89
2023/01/27 04:36:40;;;;;;;5.38;1.98;;;5.40;99.90;;;;;;5093390;28;20051;-88
2023/01/27 04:39:06;;;;;;;7.25;2.10;;;5.40;99.90;;;;;;5072843;28;20122;-89
2023/01/27 04:41:32;;;;;;;5.40;2.00;;;5.40;99.90;;;;;;5076264;28;20127;-89
2023/01/27 04:43:58;;;;;;;5.03;2.00;;;5.40;99.90;;;;;;5072317;28;20124;-89
2023/01/27 04:46:23;;;;;;;5.10;1.70;;;5.40;99.90;;;;;;5075214;28;20071;-89
2023/01/27 04:48:49;;;;;;;5.10;2.28;;;5.40;99.90;;;;;;5092856;28;20040;-89
2023/01/27 04:51:15;;;;;;;6.80;2.20;;;5.40;99.90;;;;;;5073787;28;20036;-90
2023/01/27 04:53:41;;;;;;;6.32;2.40;;;5.40;99.90;;;;;;5093319;28;20105;-89
2023/01/27 04:56:20;;;;;;;4.72;2.05;;;5.40;99.90;;;;;;5088072;28;20123;-89
2023/01/27 04:58:46;;;;;;;7.82;2.55;;;5.40;99.90;;;;;;5092344;28;20525;-89
2023/01/27 05:01:12;;;;;;;6.18;2.28;;;5.40;99.90;;;;;;5092543;28;20089;-89
2023/01/27 05:03:37;;;;;;;5.30;2.20;;;5.40;99.90;;;;;;5073152;28;20123;-89
2023/01/27 05:06:03;;;;;;;5.00;1.92;;;5.30;99.90;;;;;;5093226;28;20435;-89
2023/01/27 05:08:29;;;;;;;8.40;2.25;;;5.30;99.90;;;;;;5075571;28;20032;-89
2023/01/27 05:10:55;;;;;;;5.20;1.98;;;5.30;99.90;;;;;;5083688;28;20083;-89
2023/01/27 05:13:20;;;;;;;6.07;2.17;;;5.30;99.90;;;;;;5075970;28;20181;-89
2023/01/27 05:15:46;;;;;;;5.30;2.10;;;5.30;99.90;;;;;;5090850;28;20077;-89
2023/01/27 05:18:12;;;;;;;5.68;2.00;;;5.30;99.90;;;;;;5071737;28;20044;-89
2023/01/27 05:20:38;;;;;;;4.93;2.20;;;5.30;99.90;;;;;;5075384;28;20062;-89
2023/01/27 05:25:48;;;;;;;4.30;1.77;;;5.30;99.90;;;;;;5092469;28;20075;-89
2023/01/27 05:28:13;;;;;;;5.45;1.75;;;5.30;99.90;;;;;;5072980;28;20074;-89
2023/01/27 05:30:39;;;;;;;4.20;1.50;;;5.30;99.90;;;;;;5092310;28;20043;-89
2023/01/27 05:33:05;;;;;;;3.38;1.30;;;5.30;99.90;;;;;;5075641;28;20051;-89
2023/01/27 05:35:34;;;;;;;4.15;1.50;;;5.30;99.90;;;;;;5082989;28;20051;-89
2023/01/27 05:38:00;;;;;;;4.15;1.42;;;5.30;99.90;;;;;;5074866;28;20160;-89
2023/01/27 05:40:25;;;;;;;4.38;1.60;;;5.30;99.90;;;;;;5074955;28;20058;-89
2023/01/27 05:42:52;;;;;;;3.65;1.38;;;5.30;99.90;;;;;;5067027;28;20044;-89
2023/01/27 05:45:18;;;;;;;4.13;1.42;;;5.30;99.90;;;;;;5075353;28;20089;-89
2023/01/27 05:47:48;;;;;;;5.00;1.70;;;5.20;99.90;;;;;;5069756;28;20028;-89
2023/01/27 05:50:14;;;;;;;3.63;1.40;;;5.20;99.90;;;;;;5092021;28;20048;-89
2023/01/27 05:52:40;;;;;;;4.03;1.52;;;5.20;99.90;;;;;;5065827;28;20036;-88
2023/01/27 05:55:06;;;;;;;5.93;1.65;;;5.20;99.90;;;;;;5075042;28;20149;-89
2023/01/27 05:57:31;;;;;;;5.85;2.10;;;5.20;99.90;;;;;;5068630;28;20033;-89
2023/01/27 05:59:57;;;;;;;3.95;1.48;;;5.20;99.90;;;;;;5090547;28;20565;-89
2023/01/27 06:02:23;;;;;;;4.38;1.48;;;5.20;99.90;;;;;;5091492;28;20024;-90
2023/01/27 06:04:48;;;;;;;5.22;1.50;;;5.20;99.90;;;;;;5072841;28;20408;-89
2023/01/27 06:07:14;;;;;;;3.63;1.48;;;5.20;99.90;;;;;;5086618;28;20027;-89
2023/01/27 06:09:39;;;;;;;5.18;1.58;;;5.20;99.90;;;;;;5071774;28;20508;-89
2023/01/27 06:12:05;;;;;;;4.80;1.77;;;5.20;99.90;;;;;;5073868;28;20155;-89
2023/01/27 06:14:31;;;;;;;5.32;1.70;;;5.20;99.90;;;;;;5090840;28;20489;-89
2023/01/27 06:16:59;;;;;;;3.85;1.60;;;5.20;99.90;;;;;;5087647;28;20036;-88
2023/01/27 06:19:25;;;;;;;5.70;1.70;;;5.20;99.90;;;;;;5073616;28;20048;-89
2023/01/27 06:21:51;;;;;;;7.28;1.83;;;5.10;99.90;;;;;;5073033;28;20071;-89
2023/01/27 06:24:16;;;;;;;5.10;1.70;;;5.10;99.90;;;;;;5070643;28;20035;-89
2023/01/27 06:26:42;;;;;;;6.13;2.08;;;5.10;99.90;;;;;;5090474;28;20040;-89
2023/01/27 06:29:07;;;;;;;5.18;1.95;;;5.10;99.90;;;;;;5065840;28;20119;-89
2023/01/27 06:31:33;;;;;;;7.45;2.28;;;5.10;99.90;;;;;;5090437;28;20043;-89
2023/01/27 06:33:59;;;;;;;7.40;2.10;;;5.10;99.90;;;;;;5090150;28;20056;-89
2023/01/27 06:36:24;;;;;;;5.03;1.75;;;5.10;99.90;;;;;;5066146;28;20083;-89
2023/01/27 06:38:50;;;;;;;4.07;1.85;;;5.10;99.90;;;;;;5073195;28;20501;-88
2023/01/27 06:41:16;;;;;;;6.38;2.05;;;5.10;99.90;;;;;;5070310;28;20471;-89
2023/01/27 06:43:42;;;;;;;5.15;1.90;;;5.10;99.90;;;;;;5089938;28;20044;-89
2023/01/27 06:46:08;;;;;;;5.00;2.00;;;5.10;99.90;;;;;;5072851;28;20044;-88
2023/01/27 06:48:34;;;;;;;6.00;2.00;;;5.10;99.90;;;;;;5087031;28;20036;-89
2023/01/27 06:50:59;;;;;;;5.88;1.95;;;5.10;99.90;;;;;;5073564;28;20057;-89
2023/01/27 06:53:25;;;;;;;4.53;1.60;;;5.00;99.90;;;;;;5089414;28;20047;-88
2023/01/27 06:55:56;;;;;;;5.75;1.90;;;5.10;99.90;;;;;;5089851;28;20039;-88
2023/01/27 06:58:22;;;;;;;7.63;1.85;;;5.00;99.90;;;;;;5073059;28;20093;-90
2023/01/27 07:00:47;;;;;;;6.50;2.15;;;5.00;99.90;;;;;;5066372;28;20435;-90
2023/01/27 07:03:13;;;;;;;6.30;1.88;;;5.00;99.90;;;;;;5073335;28;20400;-88
2023/01/27 07:05:40;;;;;;;8.10;2.83;;;5.00;99.90;;;;;;5068699;28;20074;-88
2023/01/27 07:08:06;;;;;;;6.07;2.10;;;5.00;99.90;;;;;;5090098;28;20040;-89
2023/01/27 07:10:32;;;;;;;6.70;2.10;;;5.00;99.90;;;;;;5090109;28;20492;-88
2023/01/27 07:13:10;;;;;;;6.70;2.58;;;5.00;99.90;;;;;;5064732;28;20035;-88
2023/01/27 07:15:36;;;;;;;6.95;2.67;;;5.00;99.90;;;;;;5085082;28;20071;-88
2023/01/27 07:18:02;;;;;;;6.65;2.22;;;4.90;99.90;;;;;;5082942;28;20048;-89
2023/01/27 07:20:28;;;;;;;7.20;2.10;;;4.90;99.90;;;;;;5079170;28;20409;-88
2023/01/27 07:23:02;;;;;;;6.70;2.10;;;4.90;99.90;;;;;;5051882;28;20070;-88
2023/01/27 07:25:29;;;;;;;6.72;2.28;;;4.90;99.90;;;;;;5083490;28;20392;-89
2023/01/27 07:27:59;;;;;;;6.63;2.30;;;4.90;99.90;;;;;;5072756;28;20088;-88
2023/01/27 07:30:26;;;;;;;6.88;2.67;;;4.90;99.90;;;;;;5052487;28;20080;-88
2023/01/27 07:32:54;;;;;;;7.22;2.55;;;4.80;99.90;;;;;;5089707;28;20040;-88
2023/01/27 07:35:20;;;;;;;7.57;2.42;;;4.80;99.90;;;;;;5088953;28;20404;-88
2023/01/27 07:37:46;;;;;;;6.57;2.58;;;4.80;99.90;;;;;;5085936;28;20511;-88
2023/01/27 07:40:12;;;;;;;7.72;2.92;;;4.80;99.90;;;;;;5072021;28;20032;-88
2023/01/27 07:42:38;;;;;;;7.38;2.60;;;4.80;99.90;;;;;;5086785;28;20083;-88
2023/01/27 07:45:04;;;;;;;6.22;2.45;;;4.80;99.90;;;;;;5072842;28;20032;-89
2023/01/27 07:47:30;;;;;;;8.07;2.45;;;4.80;99.90;;;;;;5089196;28;20075;-88
2023/01/27 07:49:56;;;;;;;9.82;3.13;;;4.80;99.90;;;;;;5071151;28;20488;-88
2023/01/27 07:52:21;;;;;;;8.88;3.05;;;4.90;99.90;;;;;;5073002;28;20047;-88
2023/01/27 07:54:47;;;;;;;7.85;2.97;;;4.80;99.90;;;;;;5089486;28;20039;-89
2023/01/27 07:57:13;;;;;;;7.45;2.78;;;4.80;99.90;;;;;;5065976;28;20064;-88
2023/01/27 07:59:38;;;;;;;6.68;2.53;;;4.80;99.90;;;;;;5088999;28;20388;-89
2023/01/27 08:02:04;;;;;;;7.57;3.03;;;4.80;99.90;;;;;;5083389;28;20029;-89
2023/01/27 08:04:29;;;;;;;7.35;2.90;;;4.80;99.90;;;;;;5089532;28;20473;-89
2023/01/27 08:06:55;;;;;;;7.35;2.63;;;4.80;99.90;;;;;;5089067;28;20043;-88
2023/01/27 08:09:20;;;;;;;7.28;2.42;;;4.90;99.90;;;;;;5083016;28;20071;-88
2023/01/27 08:11:46;;;;;;;7.95;2.80;;;4.90;99.90;;;;;;5089204;28;20087;-89
2023/01/27 08:14:12;;;;;;;6.25;2.78;;;4.90;99.90;;;;;;5083743;28;20044;-89
2023/01/27 08:16:37;;;;;;;7.65;3.13;;;4.90;99.90;;;;;;5071257;28;20040;-89
2023/01/27 08:19:03;;;;;;;10.00;3.20;;;4.90;99.90;;;;;;5087290;28;20093;-88
2023/01/27 08:21:31;;;;;;;7.85;3.22;;;4.90;99.90;;;;;;5077468;28;20504;-88
2023/01/27 08:23:58;;;;;;;7.90;3.08;;;4.90;99.90;;;;;;5070529;28;20032;-88
2023/01/27 08:26:25;;;;;;;8.40;3.40;;;4.90;99.90;;;;;;5070366;28;20504;-88
2023/01/27 08:28:50;;;;;;;8.55;3.60;;;4.90;99.90;;;;;;5085080;28;20119;-88
2023/01/27 08:31:17;;;;;;;8.60;3.88;;;4.90;99.90;;;;;;5088860;28;20170;-88
2023/01/27 08:33:44;;;;;;;9.30;4.00;;;4.90;99.90;;;;;;5072424;28;20039;-88
2023/01/27 08:36:13;;;;;;;9.27;3.65;;;4.90;99.90;;;;;;5092670;28;20143;-88
2023/01/27 08:38:41;;;;;;;9.43;4.07;;;4.90;99.90;;;;;;5092276;28;20081;-88
2023/01/27 08:41:10;;;;;;;10.35;3.72;;;5.00;99.90;;;;;;5071326;28;20567;-88
2023/01/27 08:43:36;;;;;;;9.10;3.45;;;5.00;99.90;;;;;;5075585;28;20454;-88
2023/01/27 08:46:02;;;;;;;9.48;4.00;;;5.00;99.90;;;;;;5090495;28;20907;-88
2023/01/27 08:48:29;;;;;;;13.20;4.43;;;5.10;99.90;;;;;;5091784;28;20169;-87
2023/01/27 08:50:55;;;;;;;9.00;4.03;;;5.10;99.90;;;;;;5091059;28;20399;-87
2023/01/27 08:53:22;;;;;;;7.55;3.55;;;5.10;99.90;;;;;;5074532;28;20556;-87
2023/01/27 08:55:48;;;;;;;9.32;3.38;;;5.20;99.90;;;;;;5092699;28;20249;-87
2023/01/27 08:58:14;;;;;;;9.30;3.22;;;5.20;99.90;;;;;;5069779;28;20041;-87
2023/01/27 09:00:39;;;;;;;11.50;3.75;;;5.20;99.90;;;;;;5090698;28;20051;-88
2023/01/27 09:03:05;;;;;;;8.05;3.70;;;5.20;99.90;;;;;;5075222;28;20040;-88
2023/01/27 09:05:31;;;;;;;9.73;4.00;;;5.20;99.90;;;;;;5089971;28;20130;-88
2023/01/27 09:07:56;;;;;;;8.32;3.60;;;5.30;99.90;;;;;;5075145;28;20032;-88
2023/01/27 09:10:22;;;;;;;8.43;3.83;;;5.20;99.90;;;;;;5059778;28;20040;-88
2023/01/27 09:12:48;;;;;;;8.07;3.38;;;5.30;99.90;;;;;;5071454;28;20041;-87
2023/01/27 09:15:14;;;;;;;9.65;3.67;;;5.30;99.90;;;;;;5076031;28;20194;-88
2023/01/27 09:17:40;;;;;;;8.38;3.53;;;5.30;99.90;;;;;;5075082;28;20043;-87
2023/01/27 09:20:07;;;;;;;7.13;3.15;;;5.30;99.90;;;;;;5091916;28;20489;-90
2023/01/27 09:22:32;;;;;;;9.13;3.28;;;5.30;99.90;;;;;;5083030;28;20554;-88
2023/01/27 09:24:58;;;;;;;9.05;3.35;;;5.30;99.90;;;;;;5074928;28;20040;-88
2023/01/27 09:27:24;;;;;;;8.27;3.05;;;5.30;99.90;;;;;;5074089;28;20511;-88
2023/01/27 09:29:49;;;;;;;8.27;3.22;;;5.30;99.90;;;;;;5066996;28;20421;-88
2023/01/27 09:32:15;;;;;;;7.65;3.78;;;5.30;99.90;;;;;;5090612;28;20036;-88
2023/01/27 09:34:40;;;;;;;7.40;3.42;;;5.30;99.90;;;;;;5090222;28;20108;-87
2023/01/27 09:37:08;;;;;;;9.30;3.30;;;5.40;99.90;;;;;;5070581;28;20032;-88
2023/01/27 09:39:41;;;;;;;8.50;3.60;;;5.40;99.90;;;;;;5091022;28;20040;-88
2023/01/27 09:42:10;;;;;;;;;;;5.40;99.90;;;;;;5089466;28;20067;-88
2023/01/27 09:44:52;;;;;;;8.25;3.00;;;5.40;99.90;;;;;;5072916;28;19917;-88
2023/01/27 09:47:31;;;;;;;7.95;3.63;;;5.30;99.90;;;;;;5069233;28;20443;-88
2023/01/27 09:50:18;;;;;;;9.38;3.10;;;5.30;99.90;;;;;;5054149;28;20047;-88
2023/01/27 09:53:15;;;;;;;7.82;3.30;;;5.30;99.90;;;;;;5078130;28;20036;-88
2023/01/27 09:55:49;;;;;;;7.70;3.20;;;5.30;99.90;;;;;;5078402;28;20402;-88
2023/01/27 09:58:41;;;;;;;8.57;3.70;;;5.30;99.90;;;;;;5056444;28;20135;-88
2023/01/27 10:01:30;;;;;;;8.13;3.38;;;5.30;99.90;;;;;;5092822;28;20037;-88
2023/01/27 10:04:29;;;;;;;8.98;3.42;;;5.30;99.90;;;;;;5076997;28;20132;-88
2023/01/27 10:07:22;;;;;;;8.68;3.65;;;5.30;99.90;;;;;;5053052;28;20043;-88
2023/01/27 10:09:47;;;;;;;7.20;3.58;;;5.30;99.90;;;;;;5072205;28;20035;-88
2023/01/27 10:12:30;;;;;;;8.63;3.30;;;5.30;99.90;;;;;;5070245;28;20094;-88
2023/01/27 10:14:55;;;;;;;8.05;3.60;;;5.30;99.90;;;;;;5073879;28;20032;-88
2023/01/27 10:17:41;;;;;;;8.30;3.80;;;5.30;99.90;;;;;;5053067;28;20049;-88
2023/01/27 10:20:29;;;;;;;8.55;3.70;;;5.30;99.90;;;;;;5060606;28;20067;-87
2023/01/27 10:23:13;;;;;;;7.65;3.05;;;5.30;99.90;;;;;;5076586;28;20553;-88
2023/01/27 10:26:43;;;;;;;8.65;3.42;;;5.30;99.90;;;;;;5079790;28;20032;-88
2023/01/27 10:29:17;;;;;;;8.10;3.47;;;5.30;99.90;;;;;;4985231;28;20128;-88
2023/01/27 10:32:00;;;;;;;7.28;3.00;;;5.30;99.90;;;;;;4989816;28;20041;-88
2023/01/27 10:34:31;;;;;;;9.82;3.03;;;5.30;99.90;;;;;;4999807;28;20072;-88
2023/01/27 10:37:26;;;;;;;7.72;3.25;;;5.30;99.90;;;;;;5002522;28;20057;-87
2023/01/27 10:40:09;;;;;;;7.43;2.92;;;5.40;99.90;;;;;;5003734;28;20048;-88
2023/01/27 10:43:03;;;;;;;6.75;2.78;;;5.40;99.90;;;;;;4986091;28;20046;-88
2023/01/27 10:45:45;;;;;;;7.47;3.08;;;5.30;99.90;;;;;;5003019;28;20042;-88
2023/01/27 10:48:44;;;;;;;8.90;3.08;;;5.30;99.90;;;;;;5001190;28;20045;-88
2023/01/27 10:51:43;;;;;;;6.78;2.47;;;5.40;99.90;;;;;;4991440;28;20099;-88
2023/01/27 10:54:21;;;;;;;6.07;2.40;;;5.40;99.90;;;;;;4983316;28;20518;-88
2023/01/27 10:56:50;;;;;;;7.57;2.80;;;5.40;99.90;;;;;;5000521;28;20157;-88
2023/01/27 10:59:38;;;;;;;9.45;2.78;;;5.40;99.90;;;;;;5001048;28;20045;-88
2023/01/27 11:02:23;;;;;;;6.90;2.58;;;5.40;99.90;;;;;;5036957;28;20118;-88
2023/01/27 11:05:03;;;;;;;8.40;2.60;;;5.40;99.90;;;;;;5052368;28;20119;-88
2023/01/27 11:07:32;;;;;;;7.03;2.38;;;5.50;99.90;;;;;;5052214;28;20063;-89
2023/01/27 11:10:12;;;;;;;6.70;2.45;;;5.50;99.90;;;;;;5080129;28;20044;-89
2023/01/27 11:12:42;;;;;;;5.85;2.40;;;5.50;99.90;;;;;;5055813;28;20036;-88
2023/01/27 11:15:29;;;;;;;7.50;3.00;;;5.50;99.90;;;;;;5053941;28;20072;-88
2023/01/27 11:18:09;;;;;;;6.82;2.58;;;5.50;99.90;;;;;;5068843;28;20089;-89
2023/01/27 11:20:41;;;;;;;6.43;2.45;;;5.50;99.90;;;;;;5080349;28;20119;-89
2023/01/27 11:23:06;;;;;;;6.33;2.70;;;5.60;99.90;;;;;;5072572;28;20047;-88
2023/01/27 11:25:36;;;;;;;6.50;2.42;;;5.60;99.90;;;;;;5069665;28;20706;-88
2023/01/27 11:28:24;;;;;;;6.40;2.60;;;5.60;99.90;;;;;;5086064;28;20066;-88
2023/01/27 11:31:11;;;;;;;6.90;2.50;;;5.70;99.90;;;;;;5083316;28;20291;-87
2023/01/27 11:33:45;;;;;;;5.70;2.40;;;5.70;99.90;;;;;;5065616;28;20041;-88
2023/01/27 11:36:11;;;;;;;7.47;2.35;;;5.70;99.90;;;;;;5037010;28;20049;-88
2023/01/27 11:38:36;;;;;;;6.50;2.33;;;5.70;99.90;;;;;;5082837;28;20088;-88
2023/01/27 11:41:02;;;;;;;5.93;2.45;;;5.70;99.90;;;;;;5089483;28;20043;-89
2023/01/27 11:43:28;;;;;;;6.63;2.78;;;5.70;99.90;;;;;;5070567;28;20029;-88
2023/01/27 11:46:00;;;;;;;6.60;2.80;;;5.80;99.90;;;;;;5072223;28;20510;-88
2023/01/27 11:48:35;;;;;;;7.75;2.75;;;5.80;99.90;;;;;;5083903;28;20501;-88
2023/01/27 11:51:02;;;;;;;7.35;2.88;;;5.80;99.90;;;;;;5089327;28;20048;-89
2023/01/27 11:53:38;;;;;;;6.13;2.42;;;5.80;99.90;;;;;;5071665;28;20126;-89
2023/01/27 11:56:09;;;;;;;6.05;2.70;;;5.80;99.90;;;;;;5084870;28;20052;-88
2023/01/27 11:58:58;;;;;;;6.95;2.55;;;5.80;99.90;;;;;;5067541;28;20456;-88
2023/01/27 12:01:46;;;;;;;5.50;2.28;;;5.80;99.90;;;;;;5063999;28;20040;-89
2023/01/27 12:04:21;;;;;;;6.00;2.30;;;5.80;99.90;;;;;;5088694;28;20044;-89
2023/01/27 12:07:04;;;;;;;7.05;2.58;;;5.80;99.90;;;;;;5065417;28;20436;-89
2023/01/27 12:09:30;;;;;;;5.90;2.22;;;5.80;99.90;;;;;;5092958;28;20516;-89
2023/01/27 12:12:14;;;;;;;4.65;1.80;;;5.70;99.90;;;;;;5074015;28;20055;-88
2023/01/27 12:14:47;;;;;;;5.70;2.40;;;5.70;99.90;;;;;;5092705;28;20039;-88
2023/01/27 12:17:31;;;;;;;6.75;2.38;;;5.80;99.90;;;;;;5070840;28;20036;-88
2023/01/27 12:20:05;;;;;;;6.75;2.30;;;5.70;99.90;;;;;;5092527;28;20040;-88
2023/01/27 12:22:39;;;;;;;5.25;1.90;;;5.70;99.90;;;;;;5069146;28;20072;-88
2023/01/27 12:25:17;;;;;;;7.50;2.53;;;5.70;99.90;;;;;;5066357;28;20032;-87
2023/01/27 12:27:55;;;;;;;5.40;2.30;;;5.70;99.90;;;;;;5078534;28;20033;-87
2023/01/27 12:30:35;;;;;;;5.78;2.40;;;5.70;99.90;;;;;;5069806;28;20132;-87
2023/01/27 12:33:19;;;;;;;5.90;2.03;;;5.70;99.90;;;;;;5070257;28;20059;-87
2023/01/27 12:35:48;;;;;;;5.18;2.10;;;5.70;99.90;;;;;;5073330;28;20066;-87
2023/01/27 12:38:25;;;;;;;6.88;2.83;;;5.70;99.90;;;;;;5051859;28;20044;-88
2023/01/27 12:41:01;;;;;;;4.95;2.00;;;5.70;99.90;;;;;;5075507;28;20045;-88
2023/01/27 12:43:26;;;;;;;4.70;2.00;;;5.80;99.90;;;;;;5071492;28;20434;-88
2023/01/27 12:46:03;;;;;;;4.63;1.88;;;5.70;99.90;;;;;;5071095;28;20527;-88
2023/01/27 12:48:30;;;;;;;3.72;1.50;;;5.70;99.90;;;;;;5072063;28;20037;-87
2023/01/27 12:51:13;;;;;;;3.63;1.63;;;5.70;99.90;;;;;;5072151;28;20051;-88
2023/01/27 12:53:42;;;;;;;3.33;1.67;;;5.70;99.90;;;;;;5081107;28;20035;-88
2023/01/27 12:56:17;;;;;;;5.40;1.67;;;5.70;99.90;;;;;;5063455;28;20051;-87
2023/01/27 12:58:59;;;;;;;4.70;1.55;;;5.70;99.90;;;;;;5068602;28;20072;-87
2023/01/27 13:01:33;;;;;;;4.28;1.42;;;5.70;99.90;;;;;;5056246;28;20048;-87
2023/01/27 13:04:03;;;;;;;5.20;1.77;;;5.70;99.90;;;;;;5093212;28;20559;-87
2023/01/27 13:06:42;;;;;;;4.63;1.60;;;5.70;99.90;;;;;;5071735;28;20036;-87
2023/01/27 13:09:36;;;;;;;5.80;2.00;;;5.70;99.90;;;;;;5051507;28;20045;-87
2023/01/27 13:12:27;;;;;;;5.10;1.80;;;5.70;99.90;;;;;;5052104;28;20413;-87
2023/01/27 13:14:56;;;;;;;5.45;2.00;;;5.70;99.90;;;;;;5082363;28;20510;-87
2023/01/27 13:17:33;;;;;;;4.93;2.03;;;5.70;99.90;;;;;;5070753;28;20052;-87
2023/01/27 13:20:04;;;;;;;4.47;1.70;;;5.70;99.90;;;;;;5069452;28;20036;-87
2023/01/27 13:22:40;;;;;;;5.13;1.70;;;5.70;99.90;;;;;;5091881;28;20160;-87
2023/01/27 13:25:33;;;;;;;4.38;1.70;;;5.60;99.90;;;;;;5088063;28;20039;-87
2023/01/27 13:27:59;;;;;;;3.72;1.55;;;5.70;99.90;;;;;;5074226;28;20127;-87
2023/01/27 13:30:30;;;;;;;4.93;1.58;;;5.60;99.90;;;;;;5086259;28;20037;-87
2023/01/27 13:33:09;;;;;;;3.90;1.63;;;5.60;99.90;;;;;;5074418;28;20067;-87
2023/01/27 13:35:51;;;;;;;3.08;1.45;;;5.60;99.90;;;;;;5074552;28;20038;-87
2023/01/27 13:38:40;;;;;;;4.45;1.75;;;5.60;99.90;;;;;;5085910;28;20032;-87
2023/01/27 13:41:16;;;;;;;3.92;1.55;;;5.60;99.90;;;;;;5091217;28;20371;-88
2023/01/27 13:43:50;;;;;;;5.88;1.88;;;5.60;99.90;;;;;;5073692;28;20401;-87